createdAt,value
2023-04-23T00:01:19.311Z,12.05
2023-04-23T00:03:46.796Z,12.88
2023-04-23T00:06:14.543Z,11.70
2023-04-23T00:08:42.497Z,12.70
2023-04-23T00:11:10.251Z,12.05
2023-04-23T00:13:37.714Z,12.05
2023-04-23T00:16:05.018Z,13.05
2023-04-23T00:18:32.178Z,13.57
2023-04-23T00:20:59.169Z,12.98
2023-04-23T00:23:26.153Z,13.30
2023-04-23T00:25:53.020Z,13.05
2023-04-23T00:28:22.012Z,13.65
2023-04-23T00:30:49.204Z,14.95
2023-04-23T00:33:16.081Z,15.13
2023-04-23T00:35:42.922Z,16.63
2023-04-23T00:38:09.853Z,17.13
2023-04-23T00:40:36.995Z,15.40
2023-04-23T00:43:04.658Z,15.43
2023-04-23T00:45:31.650Z,15.10
2023-04-23T00:47:59.122Z,16.02
2023-04-23T00:50:26.408Z,15.30
2023-04-23T00:52:53.275Z,13.98
2023-04-23T00:55:21.341Z,14.98
2023-04-23T00:57:48.531Z,14.95
2023-04-23T01:00:15.729Z,14.43
2023-04-23T01:02:44.414Z,14.85
2023-04-23T01:05:12.315Z,14.80
2023-04-23T01:07:39.380Z,15.27
2023-04-23T01:10:07.120Z,14.95
2023-04-23T01:12:33.982Z,14.77
2023-04-23T01:15:01.350Z,13.93
2023-04-23T01:17:28.234Z,14.65
2023-04-23T01:19:55.292Z,14.32
2023-04-23T01:22:22.395Z,14.18
2023-04-23T01:24:49.284Z,14.32
2023-04-23T01:27:16.385Z,14.95
2023-04-23T01:29:43.447Z,14.48
2023-04-23T01:32:10.406Z,14.25
2023-04-23T01:34:37.936Z,15.57
2023-04-23T01:37:04.965Z,14.55
2023-04-23T01:39:32.369Z,13.43
2023-04-23T01:42:00.556Z,15.00
2023-04-23T01:44:27.684Z,14.48
2023-04-23T01:46:54.667Z,14.23
2023-04-23T01:49:21.572Z,15.00
2023-04-23T01:51:49.119Z,14.35
2023-04-23T01:54:15.993Z,13.50
2023-04-23T01:56:42.864Z,14.30
2023-04-23T01:59:09.762Z,14.90
2023-04-23T02:01:48.841Z,14.10
2023-04-23T02:04:17.070Z,13.77
2023-04-23T02:06:47.128Z,14.48
2023-04-23T02:09:14.070Z,15.00
2023-04-23T02:11:43.114Z,15.68
2023-04-23T02:14:10.867Z,18.15
2023-04-23T02:16:37.878Z,15.70
2023-04-23T02:19:05.025Z,14.93
2023-04-23T02:21:31.948Z,14.73
2023-04-23T02:23:58.958Z,13.70
2023-04-23T02:26:25.924Z,14.45
2023-04-23T02:28:52.823Z,14.50
2023-04-23T02:31:20.864Z,14.05
2023-04-23T02:33:50.261Z,13.80
2023-04-23T02:36:17.219Z,13.15
2023-04-23T02:38:45.630Z,13.55
2023-04-23T02:41:12.513Z,13.88
2023-04-23T02:43:39.424Z,14.15
2023-04-23T02:46:09.513Z,13.52
2023-04-23T02:48:38.383Z,14.18
2023-04-23T02:51:06.550Z,14.05
2023-04-23T02:53:33.882Z,15.27
2023-04-23T02:56:01.641Z,14.43
2023-04-23T02:58:28.655Z,14.55
2023-04-23T03:00:56.105Z,15.20
2023-04-23T03:03:26.725Z,14.27
2023-04-23T03:05:54.167Z,14.65
2023-04-23T03:08:21.271Z,14.20
2023-04-23T03:10:48.344Z,13.85
2023-04-23T03:13:15.341Z,14.40
2023-04-23T03:15:42.302Z,13.52
2023-04-23T03:18:09.384Z,14.85
2023-04-23T03:20:36.468Z,14.80
2023-04-23T03:23:06.359Z,13.68
2023-04-23T03:25:34.436Z,15.50
2023-04-23T03:28:01.868Z,14.07
2023-04-23T03:30:29.765Z,14.73
2023-04-23T03:32:57.311Z,14.45
2023-04-23T03:35:24.973Z,14.85
2023-04-23T03:37:54.074Z,13.93
2023-04-23T03:40:21.350Z,14.70
2023-04-23T03:42:48.421Z,15.38
2023-04-23T03:45:16.777Z,14.98
2023-04-23T03:47:43.981Z,15.13
2023-04-23T03:50:13.297Z,15.07
2023-04-23T03:52:40.390Z,15.38
2023-04-23T03:55:08.054Z,15.75
2023-04-23T03:57:36.008Z,14.77
2023-04-23T04:00:04.792Z,15.35
2023-04-23T04:02:32.326Z,15.10
2023-04-23T04:04:59.577Z,15.60
2023-04-23T04:07:27.072Z,14.52
2023-04-23T04:09:53.896Z,14.38
2023-04-23T04:12:20.869Z,13.77
2023-04-23T04:14:47.794Z,14.48
2023-04-23T04:17:16.186Z,14.23
2023-04-23T04:19:43.489Z,13.65
2023-04-23T04:22:10.530Z,13.52
2023-04-23T04:24:37.997Z,13.88
2023-04-23T04:27:06.007Z,14.25
2023-04-23T04:29:33.586Z,13.90
2023-04-23T04:32:01.471Z,13.95
2023-04-23T04:34:28.967Z,14.50
2023-04-23T04:36:55.917Z,14.18
2023-04-23T04:39:22.848Z,15.80
2023-04-23T04:41:49.759Z,14.32
2023-04-23T04:44:17.400Z,14.27
2023-04-23T04:46:44.390Z,14.65
2023-04-23T04:49:11.881Z,14.48
2023-04-23T04:51:39.700Z,14.88
2023-04-23T04:54:07.661Z,14.45
2023-04-23T04:56:35.246Z,14.93
2023-04-23T04:59:02.651Z,14.55
2023-04-23T05:01:29.947Z,14.95
2023-04-23T05:03:57.769Z,14.48
2023-04-23T05:06:24.914Z,14.55
2023-04-23T05:08:51.832Z,14.98
2023-04-23T05:11:19.985Z,14.65
2023-04-23T05:13:47.789Z,15.90
2023-04-23T05:16:14.998Z,15.52
2023-04-23T05:18:42.305Z,15.73
2023-04-23T05:21:09.449Z,16.27
2023-04-23T05:23:36.846Z,16.20
2023-04-23T05:26:03.942Z,16.55
2023-04-23T05:28:31.153Z,16.65
2023-04-23T05:31:00.900Z,15.00
2023-04-23T05:33:33.399Z,15.63
2023-04-23T05:36:03.346Z,15.80
2023-04-23T05:38:30.255Z,14.77
2023-04-23T05:40:57.096Z,14.50
2023-04-23T05:43:23.923Z,14.10
2023-04-23T05:45:50.787Z,14.18
2023-04-23T05:48:17.674Z,13.98
2023-04-23T05:50:44.701Z,14.77
2023-04-23T05:53:14.123Z,14.32
2023-04-23T05:55:40.972Z,14.15
2023-04-23T05:58:07.887Z,13.27
2023-04-23T06:00:35.596Z,13.15
2023-04-23T06:03:02.699Z,13.80
2023-04-23T06:05:29.962Z,14.00
2023-04-23T06:07:56.872Z,13.48
2023-04-23T06:10:23.730Z,12.60
2023-04-23T06:12:50.806Z,13.27
2023-04-23T06:15:17.662Z,12.23
2023-04-23T06:17:44.607Z,11.45
2023-04-23T06:20:12.059Z,11.60
2023-04-23T06:22:41.533Z,11.43
2023-04-23T06:25:08.815Z,11.18
2023-04-23T06:27:35.687Z,10.77
2023-04-23T06:30:02.552Z,10.88
2023-04-23T06:32:29.413Z,10.38
2023-04-23T06:35:01.412Z,10.93
2023-04-23T06:37:30.877Z,10.63
2023-04-23T06:40:00.419Z,10.90
2023-04-23T06:42:27.337Z,10.50
2023-04-23T06:44:54.439Z,10.73
2023-04-23T06:47:21.349Z,9.70
2023-04-23T06:49:48.151Z,9.90
2023-04-23T06:52:15.020Z,10.90
2023-04-23T06:54:42.075Z,10.10
2023-04-23T06:57:10.199Z,10.10
2023-04-23T06:59:37.300Z,9.45
2023-04-23T07:02:04.457Z,9.68
2023-04-23T07:04:31.575Z,9.85
2023-04-23T07:06:58.868Z,9.80
2023-04-23T07:09:26.636Z,9.65
2023-04-23T07:11:53.484Z,8.75
2023-04-23T07:14:20.898Z,9.80
2023-04-23T07:16:47.752Z,10.25
2023-04-23T07:19:14.588Z,8.85
2023-04-23T07:21:41.419Z,9.35
2023-04-23T07:24:08.380Z,9.00
2023-04-23T07:26:36.142Z,9.45
2023-04-23T07:29:03.926Z,8.57
2023-04-23T07:31:31.139Z,8.70
2023-04-23T07:33:58.044Z,8.32
2023-04-23T07:36:25.009Z,8.10
2023-04-23T07:38:51.862Z,8.38
2023-04-23T07:41:18.724Z,8.40
2023-04-23T07:43:45.973Z,8.52
2023-04-23T07:46:13.061Z,7.97
2023-04-23T07:48:40.000Z,8.43
2023-04-23T07:51:08.560Z,8.55
2023-04-23T07:53:35.771Z,8.25
2023-04-23T07:56:02.645Z,8.00
2023-04-23T07:58:29.732Z,8.20
2023-04-23T08:00:56.580Z,8.18
2023-04-23T08:03:24.121Z,8.57
2023-04-23T08:05:51.189Z,7.35
2023-04-23T08:08:18.087Z,6.70
2023-04-23T08:10:45.985Z,7.03
2023-04-23T08:13:12.880Z,6.20
2023-04-23T08:15:39.857Z,7.28
2023-04-23T08:18:06.967Z,7.20
2023-04-23T08:20:34.835Z,7.20
2023-04-23T08:23:01.885Z,7.07
2023-04-23T08:25:28.754Z,6.70
2023-04-23T08:27:55.915Z,7.13
2023-04-23T08:30:24.974Z,6.93
2023-04-23T08:32:55.716Z,5.90
2023-04-23T08:35:24.705Z,6.67
2023-04-23T08:37:51.633Z,7.20
2023-04-23T08:40:18.542Z,6.68
2023-04-23T08:42:58.096Z,5.28
2023-04-23T08:45:26.423Z,4.80
2023-04-23T08:47:54.223Z,6.10
2023-04-23T08:50:21.195Z,6.13
2023-04-23T08:52:51.052Z,5.82
2023-04-23T08:55:19.015Z,5.60
2023-04-23T08:57:46.846Z,5.65
2023-04-23T09:00:17.911Z,5.85
2023-04-23T09:02:48.877Z,5.53
2023-04-23T09:05:16.058Z,4.93
2023-04-23T09:07:43.177Z,4.65
2023-04-23T09:10:11.767Z,4.90
2023-04-23T09:12:40.222Z,4.50
2023-04-23T09:15:11.252Z,4.35
2023-04-23T09:17:43.233Z,4.57
2023-04-23T09:20:11.026Z,4.88
2023-04-23T09:22:47.574Z,4.20
2023-04-23T09:25:20.537Z,4.82
2023-04-23T09:27:48.964Z,4.65
2023-04-23T09:30:16.775Z,4.15
2023-04-23T09:32:47.808Z,4.93
2023-04-23T09:35:16.960Z,3.97
2023-04-23T09:37:49.027Z,4.40
2023-04-23T09:40:20.277Z,3.88
2023-04-23T09:42:54.305Z,3.67
2023-04-23T09:45:22.793Z,3.60
2023-04-23T09:47:51.294Z,3.97
2023-04-23T09:50:32.036Z,3.45
2023-04-23T09:52:58.959Z,2.88
2023-04-23T09:55:38.901Z,3.42
2023-04-23T09:58:10.717Z,3.53
2023-04-23T10:03:07.499Z,3.08
2023-04-23T10:05:59.343Z,3.70
2023-04-23T10:08:30.949Z,2.85
2023-04-23T10:11:09.517Z,3.15
2023-04-23T10:13:41.557Z,3.17
2023-04-23T10:16:21.303Z,3.28
2023-04-23T10:18:52.305Z,3.53
2023-04-23T10:21:20.093Z,3.05
2023-04-23T10:23:48.568Z,3.08
2023-04-23T10:26:16.921Z,3.35
2023-04-23T10:28:48.114Z,3.78
2023-04-23T10:31:17.771Z,3.65
2023-04-23T10:33:56.043Z,3.83
2023-04-23T10:36:27.767Z,3.15
2023-04-23T10:38:59.073Z,3.35
2023-04-23T10:41:29.948Z,3.70
2023-04-23T10:44:00.038Z,3.00
2023-04-23T10:46:36.473Z,3.38
2023-04-23T10:49:16.701Z,3.33
2023-04-23T10:54:19.796Z,3.58
2023-04-23T10:56:46.735Z,3.63
2023-04-23T10:59:21.149Z,3.13
2023-04-23T11:01:51.118Z,2.88
2023-04-23T11:04:23.120Z,2.95
2023-04-23T11:06:50.898Z,3.17
2023-04-23T11:10:03.204Z,3.45
2023-04-23T11:12:30.942Z,2.90
2023-04-23T11:15:02.084Z,2.83
2023-04-23T11:17:32.378Z,2.55
2023-04-23T11:20:13.604Z,3.47
2023-04-23T11:22:45.506Z,2.83
2023-04-23T11:25:23.478Z,3.40
2023-04-23T11:27:51.746Z,2.80
2023-04-23T11:30:23.441Z,3.20
2023-04-23T11:32:53.014Z,3.15
2023-04-23T11:35:23.133Z,3.03
2023-04-23T11:37:50.439Z,3.35
2023-04-23T11:40:19.324Z,2.85
2023-04-23T11:42:49.389Z,3.53
2023-04-23T11:45:23.358Z,3.35
2023-04-23T11:47:53.579Z,3.10
2023-04-23T11:50:22.458Z,2.88
2023-04-23T11:52:49.470Z,3.28
2023-04-23T11:55:17.076Z,2.38
2023-04-23T11:57:45.004Z,2.45
2023-04-23T12:00:13.799Z,2.92
2023-04-23T12:02:51.196Z,2.83
2023-04-23T12:05:22.773Z,2.78
2023-04-23T12:10:24.513Z,3.00
2023-04-23T12:12:52.734Z,2.97
2023-04-23T12:15:22.682Z,3.30
2023-04-23T12:18:09.317Z,2.42
2023-04-23T12:20:36.178Z,2.90
2023-04-23T12:23:06.773Z,3.42
2023-04-23T12:25:34.010Z,2.67
2023-04-23T12:28:01.196Z,2.60
2023-04-23T12:30:32.302Z,2.45
2023-04-23T12:33:03.037Z,3.20
2023-04-23T12:35:39.848Z,2.35
2023-04-23T12:38:06.836Z,2.60
2023-04-23T12:40:34.362Z,2.35
2023-04-23T12:43:01.263Z,2.70
2023-04-23T12:45:37.555Z,2.65
2023-04-23T12:48:04.747Z,2.67
2023-04-23T12:50:31.665Z,2.60
2023-04-23T12:52:58.744Z,2.50
2023-04-23T12:55:25.636Z,2.90
2023-04-23T12:57:54.829Z,3.08
2023-04-23T13:00:22.253Z,2.40
2023-04-23T13:02:49.406Z,2.33
2023-04-23T13:05:16.393Z,3.20
2023-04-23T13:07:43.855Z,3.10
2023-04-23T13:10:11.528Z,3.08
2023-04-23T13:12:38.863Z,2.97
2023-04-23T13:15:06.409Z,3.67
2023-04-23T13:17:33.402Z,3.20
2023-04-23T13:20:02.445Z,3.30
2023-04-23T13:22:29.999Z,3.45
2023-04-23T13:24:59.820Z,2.97
2023-04-23T13:27:29.182Z,2.63
2023-04-23T13:29:56.886Z,2.40
2023-04-23T13:32:28.399Z,2.50
2023-04-23T13:34:55.677Z,2.70
2023-04-23T13:37:24.027Z,2.60
2023-04-23T13:39:50.862Z,3.33
2023-04-23T13:42:19.934Z,3.30
2023-04-23T13:44:46.931Z,2.78
2023-04-23T13:47:13.864Z,3.10
2023-04-23T13:49:40.898Z,3.00
2023-04-23T13:52:10.451Z,3.05
2023-04-23T13:54:37.729Z,3.20
2023-04-23T13:57:04.695Z,3.20
2023-04-23T13:59:31.658Z,3.40
2023-04-23T14:01:58.580Z,2.92
2023-04-23T14:04:30.660Z,3.28
2023-04-23T14:06:57.586Z,3.08
2023-04-23T14:09:24.601Z,3.28
2023-04-23T14:11:53.987Z,3.38
2023-04-23T14:14:20.841Z,3.03
2023-04-23T14:16:47.841Z,2.92
2023-04-23T14:19:14.701Z,3.60
2023-04-23T14:21:41.817Z,3.10
2023-04-23T14:24:23.340Z,3.17
2023-04-23T14:26:50.470Z,3.33
2023-04-23T14:29:23.588Z,2.95
2023-04-23T14:31:50.863Z,2.70
2023-04-23T14:34:17.815Z,2.47
2023-04-23T14:36:46.607Z,2.83
2023-04-23T14:39:13.540Z,2.95
2023-04-23T14:41:40.986Z,2.83
2023-04-23T14:44:08.045Z,3.10
2023-04-23T14:46:35.019Z,2.72
2023-04-23T14:49:02.019Z,3.20
2023-04-23T14:51:28.940Z,3.35
2023-04-23T14:53:56.846Z,3.28
2023-04-23T14:56:24.204Z,2.70
2023-04-23T14:58:51.105Z,3.40
2023-04-23T15:01:18.124Z,3.17
2023-04-23T15:03:46.101Z,2.72
2023-04-23T15:06:13.464Z,2.65
2023-04-23T15:08:40.511Z,2.33
2023-04-23T15:11:13.362Z,2.30
2023-04-23T15:13:52.835Z,2.22
2023-04-23T15:16:46.728Z,2.70
2023-04-23T15:19:14.247Z,3.00
2023-04-23T15:21:43.278Z,3.35
2023-04-23T15:24:10.429Z,2.80
2023-04-23T15:26:38.159Z,2.80
2023-04-23T15:29:08.790Z,3.67
2023-04-23T15:31:36.869Z,3.40
2023-04-23T15:34:06.285Z,3.60
2023-04-23T15:36:34.864Z,3.42
2023-04-23T15:39:03.878Z,3.25
2023-04-23T15:41:30.799Z,3.63
2023-04-23T15:43:57.695Z,3.45
2023-04-23T15:46:26.694Z,3.83
2023-04-23T15:48:53.517Z,3.47
2023-04-23T15:51:20.391Z,3.33
2023-04-23T15:53:47.308Z,3.45
2023-04-23T15:56:14.190Z,4.13
2023-04-23T15:58:41.018Z,3.90
2023-04-23T16:01:09.838Z,4.05
2023-04-23T16:03:37.143Z,4.03
2023-04-23T16:06:05.187Z,3.88
2023-04-23T16:08:32.748Z,3.83
2023-04-23T16:10:59.672Z,4.18
2023-04-23T16:13:28.999Z,5.00
2023-04-23T16:15:55.949Z,4.43
2023-04-23T16:18:22.915Z,4.78
2023-04-23T16:20:49.835Z,5.07
2023-04-23T16:23:16.955Z,4.80
2023-04-23T16:25:44.331Z,4.35
2023-04-23T16:28:13.822Z,4.78
2023-04-23T16:30:40.859Z,4.75
2023-04-23T16:33:07.986Z,4.60
2023-04-23T16:35:35.200Z,4.88
2023-04-23T16:38:02.269Z,5.40
2023-04-23T16:40:29.416Z,5.38
2023-04-23T16:42:56.301Z,5.38
2023-04-23T16:45:23.316Z,6.10
2023-04-23T16:47:50.763Z,4.65
2023-04-23T16:50:17.819Z,4.78
2023-04-23T16:52:44.732Z,5.63
2023-04-23T16:55:11.660Z,5.63
2023-04-23T16:57:38.595Z,6.40
2023-04-23T17:00:06.361Z,4.63
2023-04-23T17:02:37.486Z,4.35
2023-04-23T17:05:06.162Z,4.77
2023-04-23T17:07:33.085Z,7.40
2023-04-23T17:10:00.025Z,6.20
2023-04-23T17:12:27.045Z,5.63
2023-04-23T17:14:53.906Z,6.03
2023-04-23T17:17:20.883Z,6.28
2023-04-23T17:19:47.909Z,5.45
2023-04-23T17:22:14.816Z,5.03
2023-04-23T17:24:41.821Z,4.40
2023-04-23T17:27:08.954Z,5.13
2023-04-23T17:29:35.959Z,5.63
2023-04-23T17:32:03.065Z,5.38
2023-04-23T17:34:30.078Z,5.93
2023-04-23T17:36:56.950Z,5.68
2023-04-23T17:39:25.634Z,5.47
2023-04-23T17:41:52.833Z,5.78
2023-04-23T17:44:19.782Z,5.10
2023-04-23T17:46:46.837Z,5.90
2023-04-23T17:49:13.743Z,5.93
2023-04-23T17:51:40.741Z,5.18
2023-04-23T17:54:07.745Z,5.20
2023-04-23T17:56:34.772Z,5.53
2023-04-23T17:59:01.922Z,5.15
2023-04-23T18:01:28.969Z,5.60
2023-04-23T18:03:56.208Z,5.22
2023-04-23T18:06:23.332Z,5.78
2023-04-23T18:08:50.193Z,5.63
2023-04-23T18:11:17.186Z,5.38
2023-04-23T18:13:44.324Z,4.85
2023-04-23T18:16:11.294Z,5.65
2023-04-23T18:18:38.244Z,5.03
2023-04-23T18:21:05.935Z,4.60
2023-04-23T18:23:33.460Z,4.35
2023-04-23T18:26:01.988Z,4.43
2023-04-23T18:28:29.109Z,4.22
2023-04-23T18:31:02.336Z,4.10
2023-04-23T18:33:43.059Z,4.40
2023-04-23T18:36:27.321Z,4.30
2023-04-23T18:38:54.261Z,4.30
2023-04-23T18:41:21.430Z,4.13
2023-04-23T18:43:48.487Z,3.92
2023-04-23T18:46:15.812Z,3.80
2023-04-23T18:48:51.846Z,3.92
2023-04-23T18:51:18.725Z,4.60
2023-04-23T18:53:46.856Z,4.38
2023-04-23T18:56:13.816Z,3.85
2023-04-23T18:58:40.732Z,3.30
2023-04-23T19:01:07.929Z,3.75
2023-04-23T19:03:35.148Z,3.47
2023-04-23T19:06:07.321Z,3.45
2023-04-23T19:11:02.691Z,3.72
2023-04-23T19:13:29.636Z,3.63
2023-04-23T19:15:56.955Z,3.80
2023-04-23T19:18:24.248Z,3.72
2023-04-23T19:20:53.646Z,4.30
2023-04-23T19:23:20.924Z,3.95
2023-04-23T19:25:48.203Z,4.15
2023-04-23T19:28:15.193Z,3.58
2023-04-23T19:30:42.111Z,3.65
2023-04-23T19:33:09.264Z,3.53
2023-04-23T19:35:39.340Z,3.50
2023-04-23T19:38:07.119Z,3.83
2023-04-23T19:40:34.240Z,4.13
2023-04-23T19:43:01.489Z,3.90
2023-04-23T19:45:30.088Z,3.67
2023-04-23T19:47:57.333Z,4.25
2023-04-23T19:50:24.926Z,4.15
2023-04-23T19:52:52.039Z,4.03
2023-04-23T19:55:29.132Z,3.78
2023-04-23T19:57:58.937Z,3.40
2023-04-23T20:00:30.052Z,3.63
2023-04-23T20:02:57.844Z,3.90
2023-04-23T20:05:25.111Z,4.10
2023-04-23T20:07:52.687Z,4.55
2023-04-23T20:10:19.723Z,4.72
2023-04-23T20:12:46.671Z,4.47
2023-04-23T20:15:13.853Z,4.97
2023-04-23T20:17:41.019Z,4.60
2023-04-23T20:20:09.571Z,5.95
2023-04-23T20:22:36.488Z,5.13
2023-04-23T20:25:03.641Z,5.88
2023-04-23T20:27:31.794Z,5.53
2023-04-23T20:30:00.859Z,5.75
2023-04-23T20:32:27.809Z,5.15
2023-04-23T20:34:54.710Z,5.15
2023-04-23T20:37:21.813Z,5.63
2023-04-23T20:39:49.968Z,6.68
2023-04-23T20:42:16.959Z,6.68
2023-04-23T20:44:45.675Z,7.20
2023-04-23T20:47:14.131Z,7.68
2023-04-23T20:49:41.348Z,7.40
2023-04-23T20:52:08.498Z,7.47
2023-04-23T20:54:36.337Z,7.40
2023-04-23T20:57:03.965Z,8.45
2023-04-23T20:59:31.072Z,7.38
2023-04-23T21:02:02.726Z,9.30
2023-04-23T21:04:32.833Z,9.00
2023-04-23T21:06:59.968Z,8.30
2023-04-23T21:09:26.923Z,8.25
2023-04-23T21:11:54.315Z,8.00
2023-04-23T21:14:21.303Z,7.60
2023-04-23T21:16:48.281Z,7.38
2023-04-23T21:19:15.538Z,6.53
2023-04-23T21:21:42.431Z,6.28
2023-04-23T21:24:09.315Z,6.22
2023-04-23T21:26:38.883Z,6.07
2023-04-23T21:29:07.986Z,7.00
2023-04-23T21:31:40.771Z,5.97
2023-04-23T21:34:07.723Z,6.53
2023-04-23T21:36:34.752Z,6.10
2023-04-23T21:39:01.961Z,6.13
2023-04-23T21:41:28.982Z,6.20
2023-04-23T21:43:56.019Z,6.57
2023-04-23T21:46:25.148Z,6.70
2023-04-23T21:48:53.859Z,6.18
2023-04-23T21:51:22.500Z,6.35
2023-04-23T21:53:49.571Z,6.15
2023-04-23T21:56:17.150Z,5.53
2023-04-23T21:58:44.857Z,6.28
2023-04-23T22:01:14.156Z,7.40
2023-04-23T22:03:43.458Z,8.07
2023-04-23T22:06:10.761Z,7.45
2023-04-23T22:08:38.280Z,6.55
2023-04-23T22:11:06.931Z,7.53
2023-04-23T22:13:34.687Z,8.63
2023-04-23T22:16:01.814Z,7.55
2023-04-23T22:18:28.742Z,7.80
2023-04-23T22:20:55.722Z,7.75
2023-04-23T22:23:22.674Z,7.75
2023-04-23T22:25:49.560Z,7.32
2023-04-23T22:28:17.046Z,7.30
2023-04-23T22:30:43.958Z,7.28
2023-04-23T22:33:11.092Z,7.80
2023-04-23T22:35:37.956Z,7.78
2023-04-23T22:38:05.054Z,7.22
2023-04-23T22:40:32.040Z,7.05
2023-04-23T22:42:58.947Z,7.40
2023-04-23T22:45:25.984Z,6.78
2023-04-23T22:47:55.977Z,7.40
2023-04-23T22:50:22.884Z,8.93
2023-04-23T22:52:49.807Z,7.07
2023-04-23T22:55:18.821Z,6.80
2023-04-23T22:57:46.150Z,7.28
2023-04-23T23:00:13.643Z,7.35
2023-04-23T23:02:42.776Z,8.15
2023-04-23T23:05:10.274Z,10.35
2023-04-23T23:07:37.259Z,11.27
2023-04-23T23:10:04.597Z,12.38
2023-04-23T23:12:31.636Z,12.95
2023-04-23T23:14:58.508Z,12.43
2023-04-23T23:17:25.399Z,9.50
2023-04-23T23:19:54.432Z,9.80
2023-04-23T23:22:21.320Z,10.27
2023-04-23T23:24:48.252Z,8.75
2023-04-23T23:27:15.192Z,9.55
2023-04-23T23:29:42.354Z,9.40
2023-04-23T23:32:09.527Z,9.10
2023-04-23T23:34:36.380Z,9.10
2023-04-23T23:37:05.741Z,10.60
2023-04-23T23:39:32.613Z,10.23
2023-04-23T23:41:59.908Z,10.90
2023-04-23T23:44:27.044Z,9.48
2023-04-23T23:46:54.077Z,9.23
2023-04-23T23:49:21.641Z,10.18
2023-04-23T23:51:48.560Z,9.35
2023-04-23T23:54:15.448Z,8.52
2023-04-23T23:56:42.339Z,9.23
2023-04-23T23:59:09.195Z,8.68
